Time;durP1;ratioP1;P1;durP2;ratioP2;P2;SDS_P1;SDS_P2;PMS_P1;PMS_P2;Temp;Humidity;BMP_temperature;BMP_pressure;BME280_temperature;BME280_humidity;BME280_pressure;Samples;Min_cycle;Max_cycle;Signal;HPM_P1;HPM_P2
2022/11/18 00:00:24;;;;;;;;;;;;;;;14.91;61.07;99614.09;5041278;28;19917;-76
2022/11/18 00:02:49;;;;;;;;;;;;;;;15.10;60.22;99616.91;5046865;28;20352;-77
2022/11/18 00:05:14;;;;;;;;;;;;;;;14.98;60.61;99622.69;5045306;28;19932;-77
2022/11/18 00:07:40;;;;;;;;;;;;;;;14.86;60.97;99624.94;5043349;28;19913;-77
2022/11/18 00:10:05;;;;;;;;;;;;;;;15.06;60.21;99629.38;5057773;28;19927;-77
2022/11/18 00:15:14;;;;;;;;;;;;;;;15.00;60.16;99639.44;5044543;28;19920;-79
2022/11/18 00:17:39;;;;;;;;;;;;;;;15.05;60.19;99647.53;5041104;28;19909;-77
2022/11/18 00:20:05;;;;;;;;;;;;;;;14.98;60.17;99639.72;5044715;28;19920;-78
2022/11/18 00:22:30;;;;;;;;;;;;;;;14.82;61.01;99648.25;5047003;28;19921;-77
2022/11/18 00:24:55;;;;;;;;;;;;;;;14.90;60.74;99644.94;5041207;28;19936;-77
2022/11/18 00:27:20;;;;;;;;;;;;;;;14.84;61.08;99646.88;5044205;28;19977;-78
2022/11/18 00:29:45;;;;;;;;;;;;;;;14.89;60.75;99646.84;5044267;28;19912;-77
2022/11/18 00:32:11;;;;;;;;;;;;;;;14.79;61.43;99654.22;5042124;28;20003;-76
2022/11/18 00:34:36;;;;;;;;;;;;;;;15.02;60.61;99655.41;5045393;28;19923;-77
2022/11/18 00:37:02;;;;;;;;;;;;;;;15.08;60.61;99659.66;5045912;28;19920;-76
2022/11/18 00:39:27;;;;;;;;;;;;;;;15.11;60.59;99653.72;5042378;28;19916;-75
2022/11/18 00:44:36;;;;;;;;;;;;;;;14.95;60.40;99661.97;5043212;28;20173;-78
2022/11/18 00:47:02;;;;;;;;;;;;;;;15.07;60.04;99663.47;5040982;28;19921;-77
2022/11/18 00:49:27;;;;;;;;;;;;;;;14.68;61.09;99664.28;5042290;28;19951;-76
2022/11/18 00:51:52;;;;;;;;;;;;;;;14.75;61.01;99666.69;5040964;28;19928;-76
2022/11/18 00:54:18;;;;;;;;;;;;;;;14.82;60.59;99664.47;5042167;28;19917;-77
2022/11/18 00:56:43;;;;;;;;;;;;;;;14.64;61.22;99665.16;5041257;28;19923;-78
2022/11/18 00:59:08;;;;;;;;;;;;;;;14.81;60.78;99665.56;5042396;28;19917;-77
2022/11/18 01:01:34;;;;;;;;;;;;;;;14.39;62.05;99668.78;5042720;28;19921;-77
2022/11/18 01:03:59;;;;;;;;;;;;;;;14.18;62.73;99671.84;5040357;28;19917;-78
2022/11/18 01:06:24;;;;;;;;;;;;;;;13.99;63.58;99677.84;5042160;28;19913;-76
2022/11/18 01:08:49;;;;;;;;;;;;;;;14.58;61.85;99680.59;5043227;28;20011;-77
2022/11/18 01:13:58;;;;;;;;;;;;;;;14.63;61.17;99691.38;5042796;28;19923;-77
2022/11/18 01:16:24;;;;;;;;;;;;;;;14.66;60.66;99687.31;5041335;28;19913;-77
2022/11/18 01:18:50;;;;;;;;;;;;;;;14.44;61.58;99687.72;5043268;28;19956;-76
2022/11/18 01:21:15;;;;;;;;;;;;;;;14.58;61.42;99691.41;5042420;28;20462;-76
2022/11/18 01:23:41;;;;;;;;;;;;;;;14.35;62.29;99691.28;5043687;28;19912;-77
2022/11/18 01:26:08;;;;;;;;;;;;;;;14.54;61.41;99698.47;5041251;28;19940;-77
2022/11/18 01:28:34;;;;;;;;;;;;;;;14.20;62.59;99696.69;5043056;28;20443;-77
2022/11/18 01:31:07;;;;;;;;;;;;;;;14.48;61.80;99704.97;5040526;28;19964;-78
2022/11/18 01:33:32;;;;;;;;;;;;;;;14.23;62.83;99705.03;5031800;28;19917;-78
2022/11/18 01:35:57;;;;;;;;;;;;;;;14.51;61.67;99703.59;5031947;28;19919;-77
2022/11/18 01:38:22;;;;;;;;;;;;;;;14.74;61.08;99708.34;5030930;28;19943;-78
2022/11/18 01:40:48;;;;;;;;;;;;;;;14.46;61.60;99709.88;5031358;28;19917;-78
2022/11/18 01:43:15;;;;;;;;;;;;;;;14.55;61.80;99710.88;5031508;28;19925;-77
2022/11/18 01:45:41;;;;;;;;;;;;;;;14.54;61.95;99713.88;5031267;28;19921;-77
2022/11/18 01:48:17;;;;;;;;;;;;;;;14.62;61.33;99716.78;5031648;28;20357;-76
2022/11/18 01:50:51;;;;;;;;;;;;;;;14.42;61.84;99716.91;5042120;28;19909;-77
2022/11/18 01:53:22;;;;;;;;;;;;;;;14.57;61.33;99716.81;5051502;28;19916;-76
2022/11/18 01:55:49;;;;;;;;;;;;;;;14.58;61.23;99723.88;5051191;28;19916;-76
2022/11/18 01:58:40;;;;;;;;;;;;;;;14.51;61.44;99719.81;5051381;28;19916;-77
2022/11/18 02:01:06;;;;;;;;;;;;;;;14.44;61.19;99720.16;5027896;28;20003;-77
2022/11/18 02:03:32;;;;;;;;;;;;;;;14.43;61.35;99728.50;5031280;28;20286;-77
2022/11/18 02:05:58;;;;;;;;;;;;;;;14.47;61.14;99726.88;5031640;28;19909;-76
2022/11/18 02:08:24;;;;;;;;;;;;;;;14.49;60.90;99730.09;5031227;28;19987;-76
2022/11/18 02:10:50;;;;;;;;;;;;;;;14.50;60.95;99729.03;5031142;28;19913;-77
2022/11/18 02:13:16;;;;;;;;;;;;;;;14.48;60.95;99733.91;5030997;28;20195;-77
2022/11/18 02:15:41;;;;;;;;;;;;;;;14.43;61.22;99737.44;5037644;28;19967;-76
2022/11/18 02:18:12;;;;;;;;;;;;;;;14.49;61.11;99740.91;5051065;28;19976;-76
2022/11/18 02:20:40;;;;;;;;;;;;;;;14.44;60.97;99739.06;5051417;28;19958;-76
2022/11/18 02:23:24;;;;;;;;;;;;;;;14.44;60.99;99747.16;5051126;28;20003;-77
2022/11/18 02:26:09;;;;;;;;;;;;;;;14.42;61.30;99749.34;5051029;28;19917;-78
2022/11/18 02:28:40;;;;;;;;;;;;;;;14.34;61.63;99758.03;5050416;28;19917;-78
2022/11/18 02:31:16;;;;;;;;;;;;;;;14.43;61.11;99755.53;5050607;28;19981;-76
2022/11/18 02:33:54;;;;;;;;;;;;;;;14.49;61.04;99759.84;5051195;28;20016;-76
2022/11/18 02:36:19;;;;;;;;;;;;;;;14.49;61.41;99760.66;5050994;28;19908;-76
2022/11/18 02:38:48;;;;;;;;;;;;;;;14.53;61.05;99760.91;5051572;28;19919;-76
2022/11/18 02:41:15;;;;;;;;;;;;;;;14.59;61.28;99757.09;5050946;28;19939;-77
2022/11/18 02:43:45;;;;;;;;;;;;;;;14.68;61.33;99761.63;5050427;28;19924;-77
2022/11/18 02:46:13;;;;;;;;;;;;;;;14.66;61.79;99758.41;5050744;28;19980;-76
2022/11/18 02:48:40;;;;;;;;;;;;;;;14.70;61.53;99764.09;5051699;28;19913;-77
2022/11/18 02:51:08;;;;;;;;;;;;;;;14.79;61.52;99757.00;5054489;28;19917;-77
2022/11/18 02:53:34;;;;;;;;;;;;;;;14.75;61.47;99762.16;5055117;28;20039;-77
2022/11/18 02:56:01;;;;;;;;;;;;;;;14.83;61.28;99761.56;5054425;28;20391;-77
2022/11/18 02:58:26;;;;;;;;;;;;;;;14.81;61.29;99771.06;5053966;28;20031;-76
2022/11/18 03:00:55;;;;;;;;;;;;;;;14.82;61.54;99772.66;5054427;28;19916;-77
2022/11/18 03:03:27;;;;;;;;;;;;;;;14.90;61.25;99769.38;5054605;28;19929;-75
2022/11/18 03:06:05;;;;;;;;;;;;;;;14.93;61.45;99777.75;5055132;28;19909;-77
2022/11/18 03:08:35;;;;;;;;;;;;;;;14.85;61.44;99777.53;5054822;28;19939;-76
2022/11/18 03:11:06;;;;;;;;;;;;;;;14.87;61.81;99781.56;5054367;28;20296;-76
2022/11/18 03:13:37;;;;;;;;;;;;;;;14.74;61.78;99787.56;5054031;28;20438;-77
2022/11/18 03:16:09;;;;;;;;;;;;;;;15.03;61.24;99781.47;5044533;28;19971;-78
2022/11/18 03:18:53;;;;;;;;;;;;;;;15.04;61.12;99788.50;5033859;28;20335;-77
2022/11/18 03:21:22;;;;;;;;;;;;;;;15.07;61.25;99793.34;5033834;28;19921;-76
2022/11/18 03:23:54;;;;;;;;;;;;;;;14.69;62.07;99795.72;5039498;28;19913;-77
2022/11/18 03:26:26;;;;;;;;;;;;;;;14.92;61.29;99795.06;5054062;28;19928;-78
2022/11/18 03:29:02;;;;;;;;;;;;;;;15.01;61.38;99799.88;5054253;28;20346;-77
2022/11/18 03:31:32;;;;;;;;;;;;;;;14.92;61.73;99813.19;5053453;28;19940;-78
2022/11/18 03:34:04;;;;;;;;;;;;;;;15.09;61.77;99804.72;5053609;28;19917;-76
2022/11/18 03:36:32;;;;;;;;;;;;;;;15.20;61.41;99817.09;5052398;28;20374;-76
2022/11/18 03:38:59;;;;;;;;;;;;;;;15.16;61.14;99818.72;5054376;28;19912;-77
2022/11/18 03:41:27;;;;;;;;;;;;;;;15.00;61.83;99819.94;5053495;28;19921;-77
2022/11/18 03:43:55;;;;;;;;;;;;;;;15.24;60.99;99820.84;5037026;28;20076;-78
2022/11/18 03:46:30;;;;;;;;;;;;;;;15.25;61.11;99825.19;5034266;28;19972;-76
2022/11/18 03:48:57;;;;;;;;;;;;;;;15.17;61.10;99831.19;5033628;28;19917;-76
2022/11/18 03:51:27;;;;;;;;;;;;;;;15.26;60.64;99830.31;5033617;28;20297;-78
2022/11/18 03:53:57;;;;;;;;;;;;;;;15.27;60.71;99831.91;5033789;28;19915;-76
2022/11/18 03:56:27;;;;;;;;;;;;;;;15.26;60.51;99832.19;5033353;28;19917;-76
2022/11/18 03:59:02;;;;;;;;;;;;;;;15.31;60.62;99834.91;5035848;28;20492;-77
2022/11/18 04:01:30;;;;;;;;;;;;;;;15.37;60.62;99833.78;5052715;28;19921;-77
2022/11/18 04:03:56;;;;;;;;;;;;;;;15.55;60.19;99838.53;5053197;28;20307;-77
2022/11/18 04:06:30;;;;;;;;;;;;;;;15.28;61.77;99848.97;5053421;28;19924;-78
2022/11/18 04:08:58;;;;;;;;;;;;;;;15.24;61.94;99853.31;5053781;28;19912;-76
2022/11/18 04:14:13;;;;;;;;;;;;;;;15.44;61.35;99856.75;5052958;28;19924;-77
2022/11/18 04:16:39;;;;;;;;;;;;;;;15.38;61.83;99857.84;5038842;28;19917;-78
2022/11/18 04:19:04;;;;;;;;;;;;;;;15.59;60.63;99866.66;5032850;28;19913;-77
2022/11/18 04:21:29;;;;;;;;;;;;;;;15.61;61.03;99865.31;5034233;28;19921;-76
2022/11/18 04:23:55;;;;;;;;;;;;;;;15.72;60.52;99864.13;5046560;28;19924;-78
2022/11/18 04:26:20;;;;;;;;;;;;;;;15.68;60.95;99868.50;5032803;28;19917;-78
2022/11/18 04:28:45;;;;;;;;;;;;;;;15.73;60.70;99865.75;5035407;28;20612;-76
2022/11/18 04:31:10;;;;;;;;;;;;;;;15.52;60.99;99866.19;5052694;28;19968;-76
2022/11/18 04:33:35;;;;;;;;;;;;;;;15.94;60.13;99873.72;5051447;28;20427;-77
2022/11/18 04:36:01;;;;;;;;;;;;;;;15.70;60.88;99870.94;5053012;28;20003;-76
2022/11/18 04:38:26;;;;;;;;;;;;;;;15.45;61.79;99877.31;5052794;28;19993;-77
2022/11/18 04:40:52;;;;;;;;;;;;;;;15.49;61.77;99870.25;5052867;28;19923;-77
2022/11/18 04:43:17;;;;;;;;;;;;;;;15.31;62.68;99879.00;5052341;28;19921;-77
2022/11/18 04:45:42;;;;;;;;;;;;;;;15.61;61.71;99883.44;5052335;28;19932;-77
2022/11/18 04:48:07;;;;;;;;;;;;;;;15.60;61.72;99887.25;5052912;28;19909;-77
2022/11/18 04:50:32;;;;;;;;;;;;;;;15.24;62.80;99886.63;5053361;28;20285;-77
2022/11/18 04:52:57;;;;;;;;;;;;;;;15.47;62.14;99893.28;5052743;28;20360;-77
2022/11/18 04:55:23;;;;;;;;;;;;;;;15.42;62.10;99893.31;5052302;28;19971;-77
2022/11/18 04:57:48;;;;;;;;;;;;;;;15.52;61.95;99906.81;5052024;28;19919;-76
2022/11/18 05:00:13;;;;;;;;;;;;;;;15.51;61.90;99900.56;5051331;28;19977;-78
2022/11/18 05:02:39;;;;;;;;;;;;;;;15.75;60.83;99900.69;5044025;28;19970;-78
2022/11/18 05:05:04;;;;;;;;;;;;;;;15.73;60.93;99905.56;5035370;28;20345;-77
2022/11/18 05:07:29;;;;;;;;;;;;;;;15.51;61.72;99913.28;5038289;28;20427;-77
2022/11/18 05:09:54;;;;;;;;;;;;;;;15.62;61.10;99917.56;5046991;28;19920;-78
2022/11/18 05:15:04;;;;;;;;;;;;;;;15.67;61.41;99912.94;5037758;28;19916;-75
2022/11/18 05:17:29;;;;;;;;;;;;;;;15.58;61.54;99917.34;5052657;28;19909;-76
2022/11/18 05:19:54;;;;;;;;;;;;;;;14.91;63.99;99920.59;5032522;28;20011;-76
2022/11/18 05:22:19;;;;;;;;;;;;;;;15.26;62.79;99927.75;5031999;28;20392;-76
2022/11/18 05:24:45;;;;;;;;;;;;;;;15.44;62.52;99931.75;5045324;28;19920;-76
2022/11/18 05:27:10;;;;;;;;;;;;;;;15.65;61.57;99931.38;5052082;28;19942;-76
2022/11/18 05:29:35;;;;;;;;;;;;;;;15.44;62.51;99927.16;5051850;28;19916;-76
2022/11/18 05:32:01;;;;;;;;;;;;;;;15.49;62.28;99937.13;5051814;28;19920;-76
2022/11/18 05:34:26;;;;;;;;;;;;;;;15.20;63.23;99939.69;5051582;28;19955;-77
2022/11/18 05:36:51;;;;;;;;;;;;;;;15.31;62.88;99946.66;5051183;28;19960;-75
2022/11/18 05:39:17;;;;;;;;;;;;;;;15.74;61.42;99953.25;5051348;28;19913;-77
2022/11/18 05:44:26;;;;;;;;;;;;;;;15.67;62.14;99953.56;5039768;28;19974;-75
2022/11/18 05:46:51;;;;;;;;;;;;;;;14.81;64.71;99954.97;5039192;28;19917;-77
2022/11/18 05:49:16;;;;;;;;;;;;;;;15.03;64.63;99958.16;5040880;28;19919;-77
2022/11/18 05:51:41;;;;;;;;;;;;;;;15.25;63.90;99964.00;5039747;28;20270;-77
2022/11/18 05:54:08;;;;;;;;;;;;;;;15.76;61.91;99959.22;5041881;28;19915;-76
2022/11/18 05:56:40;;;;;;;;;;;;;;;15.47;62.65;99961.78;5041411;28;19913;-77
2022/11/18 05:59:06;;;;;;;;;;;;;;;15.68;62.18;99963.28;5041743;28;19921;-77
2022/11/18 06:01:35;;;;;;;;;;;;;;;15.30;63.47;99971.31;5039755;28;20321;-77
2022/11/18 06:04:02;;;;;;;;;;;;;;;15.26;63.77;99971.06;5039672;28;19956;-77
2022/11/18 06:06:27;;;;;;;;;;;;;;;15.40;63.62;99979.41;5039644;28;19960;-77
2022/11/18 06:09:01;;;;;;;;;;;;;;;15.51;62.84;99976.38;5043159;28;19944;-79
2022/11/18 06:11:27;;;;;;;;;;;;;;;15.50;62.92;99979.38;5051300;28;19948;-80
2022/11/18 06:13:59;;;;;;;;;;;;;;;15.28;63.88;99977.00;5051065;28;19948;-80
2022/11/18 06:16:26;;;;;;;;;;;;;;;15.68;62.36;99982.25;5038729;28;19917;-79
2022/11/18 06:18:52;;;;;;;;;;;;;;;15.64;62.82;99977.69;5049284;28;20341;-81
2022/11/18 06:21:17;;;;;;;;;;;;;;;15.47;63.08;99980.75;5051518;28;19991;-82
2022/11/18 06:23:43;;;;;;;;;;;;;;;15.50;63.47;99985.63;5052644;28;19978;-80
2022/11/18 06:26:08;;;;;;;;;;;;;;;15.19;64.28;99988.69;5054955;28;19913;-81
2022/11/18 06:28:34;;;;;;;;;;;;;;;15.64;63.08;100002.06;5053711;28;19960;-80
2022/11/18 06:31:00;;;;;;;;;;;;;;;15.53;63.21;99998.59;5038238;28;19924;-80
2022/11/18 06:33:25;;;;;;;;;;;;;;;15.61;62.60;100002.59;5046223;28;19923;-79
2022/11/18 06:35:50;;;;;;;;;;;;;;;15.66;63.00;100006.09;5043083;28;19958;-79
2022/11/18 06:38:15;;;;;;;;;;;;;;;15.77;62.19;100004.97;5045972;28;19924;-77
2022/11/18 06:40:43;;;;;;;;;;;;;;;15.44;62.95;100016.50;5054355;28;19913;-78
2022/11/18 06:48:40;;;;;;;;;;;;;;;15.78;62.03;100025.53;5054681;28;19924;-80
2022/11/18 06:51:06;;;;;;;;;;;;;;;15.93;61.98;100029.25;5054324;28;20283;-79
2022/11/18 06:53:32;;;;;;;;;;;;;;;15.80;61.65;100031.50;5055181;28;20036;-81
2022/11/18 06:56:01;;;;;;;;;;;;;;;15.50;62.74;100034.34;5054767;28;20376;-82
2022/11/18 06:58:26;;;;;;;;;;;;;;;15.48;63.22;100046.53;5054847;28;20062;-79
2022/11/18 07:00:51;;;;;;;;;;;;;;;15.47;63.08;100053.03;5051492;28;20369;-79
2022/11/18 07:03:16;;;;;;;;;;;;;;;15.47;63.44;100053.84;5044123;28;19926;-79
2022/11/18 07:05:42;;;;;;;;;;;;;;;15.80;62.30;100063.22;5041726;28;19967;-79
2022/11/18 07:08:07;;;;;;;;;;;;;;;15.23;64.28;100068.25;5042939;28;19967;-80
2022/11/18 07:10:32;;;;;;;;;;;;;;;15.05;64.51;100072.34;5043470;28;19974;-80
2022/11/18 07:12:57;;;;;;;;;;;;;;;15.33;64.48;100079.84;5052867;28;20380;-79
2022/11/18 07:15:23;;;;;;;;;;;;;;;15.16;64.70;100083.94;5044962;28;19917;-80
2022/11/18 07:17:48;;;;;;;;;;;;;;;15.25;64.87;100085.03;5049044;28;19991;-80
2022/11/18 07:20:13;;;;;;;;;;;;;;;15.08;64.78;100088.03;5046554;28;19916;-78
2022/11/18 07:22:38;;;;;;;;;;;;;;;15.25;64.02;100093.94;5044538;28;19916;-80
2022/11/18 07:25:04;;;;;;;;;;;;;;;15.44;63.95;100088.78;5043749;28;19932;-79
2022/11/18 07:27:29;;;;;;;;;;;;;;;15.04;65.60;100097.78;5044196;28;20294;-81
2022/11/18 07:29:54;;;;;;;;;;;;;;;15.37;64.28;100094.47;5043638;28;19942;-78
2022/11/18 07:32:19;;;;;;;;;;;;;;;15.16;64.43;100095.59;5042848;28;19917;-80
2022/11/18 07:34:45;;;;;;;;;;;;;;;14.90;65.84;100097.50;5047494;28;19923;-79
2022/11/18 07:37:10;;;;;;;;;;;;;;;14.94;66.02;100101.28;5053416;28;19990;-79
2022/11/18 07:39:36;;;;;;;;;;;;;;;15.16;65.26;100105.59;5050402;28;19978;-80
2022/11/18 07:42:01;;;;;;;;;;;;;;;15.24;64.75;100105.88;5050875;28;20421;-77
2022/11/18 07:44:26;;;;;;;;;;;;;;;15.66;63.78;100108.22;5053870;28;20042;-80
2022/11/18 07:46:51;;;;;;;;;;;;;;;15.96;62.06;100116.22;5053188;28;19979;-80
2022/11/18 07:49:17;;;;;;;;;;;;;;;15.71;63.21;100117.16;5053241;28;19919;-80
2022/11/18 07:51:42;;;;;;;;;;;;;;;15.30;64.36;100120.19;5052776;28;20288;-76
2022/11/18 07:54:11;;;;;;;;;;;;;;;15.10;65.65;100122.91;5053867;28;19913;-78
2022/11/18 07:56:37;;;;;;;;;;;;;;;14.98;65.99;100121.31;5053343;28;19915;-79
2022/11/18 07:59:02;;;;;;;;;;;;;;;15.13;65.60;100128.63;5053184;28;19931;-79
2022/11/18 08:01:29;;;;;;;;;;;;;;;15.42;64.66;100123.47;5052953;28;20019;-80
2022/11/18 08:03:54;;;;;;;;;;;;;;;15.35;64.68;100134.53;5052950;28;20349;-80
2022/11/18 08:06:20;;;;;;;;;;;;;;;15.57;64.34;100137.78;5053331;28;20016;-79
2022/11/18 08:08:45;;;;;;;;;;;;;;;15.35;64.85;100142.66;5052168;28;20128;-79
2022/11/18 08:11:12;;;;;;;;;;;;;;;15.29;65.48;100148.38;5052314;28;19923;-78
2022/11/18 08:13:37;;;;;;;;;;;;;;;15.87;63.07;100157.72;5052702;28;19963;-79
2022/11/18 08:16:03;;;;;;;;;;;;;;;15.59;63.82;100162.69;5043513;28;20388;-79
2022/11/18 08:18:30;;;;;;;;;;;;;;;15.97;63.37;100161.22;5052421;28;20372;-78
2022/11/18 08:20:55;;;;;;;;;;;;;;;15.88;63.37;100162.84;5052677;28;19967;-77
2022/11/18 08:23:20;;;;;;;;;;;;;;;15.96;62.86;100177.75;5051646;28;19920;-76
2022/11/18 08:25:46;;;;;;;;;;;;;;;15.82;63.55;100178.31;5052047;28;20355;-77
2022/11/18 08:28:12;;;;;;;;;;;;;;;15.95;63.29;100185.06;5051909;28;20373;-78
2022/11/18 08:30:37;;;;;;;;;;;;;;;16.17;62.51;100184.72;5052003;28;19978;-78
2022/11/18 08:33:02;;;;;;;;;;;;;;;15.76;63.78;100192.19;5050616;28;19948;-77
2022/11/18 08:35:28;;;;;;;;;;;;;;;15.93;63.42;100187.25;5052343;28;19912;-77
2022/11/18 08:37:54;;;;;;;;;;;;;;;16.26;62.76;100193.88;5050289;28;19913;-79
2022/11/18 08:40:19;;;;;;;;;;;;;;;15.89;63.76;100198.91;5051802;28;19956;-79
2022/11/18 08:42:44;;;;;;;;;;;;;;;16.18;62.77;100208.84;5051793;28;19924;-78
2022/11/18 08:45:10;;;;;;;;;;;;;;;16.11;63.24;100202.91;5051573;28;19932;-77
2022/11/18 08:47:36;;;;;;;;;;;;;;;15.86;63.87;100205.72;5051805;28;19909;-77
2022/11/18 08:50:06;;;;;;;;;;;;;;;16.21;63.17;100208.28;5051732;28;19923;-79
2022/11/18 08:52:31;;;;;;;;;;;;;;;16.40;62.19;100212.00;5051756;28;19913;-78
2022/11/18 08:54:56;;;;;;;;;;;;;;;16.43;62.54;100208.72;5051615;28;20324;-77
2022/11/18 08:57:22;;;;;;;;;;;;;;;16.19;62.86;100218.59;5051519;28;20440;-77
2022/11/18 08:59:47;;;;;;;;;;;;;;;16.18;62.97;100219.69;5052327;28;19912;-78
2022/11/18 09:02:16;;;;;;;;;;;;;;;16.22;63.09;100223.47;5051338;28;19924;-78
2022/11/18 09:04:42;;;;;;;;;;;;;;;16.49;62.44;100225.84;5051779;28;19920;-78
2022/11/18 09:07:07;;;;;;;;;;;;;;;16.21;62.92;100224.56;5049975;28;20438;-78
2022/11/18 09:09:32;;;;;;;;;;;;;;;15.83;64.16;100222.50;5051356;28;19916;-79
2022/11/18 09:11:57;;;;;;;;;;;;;;;15.80;65.08;100225.78;5051829;28;19958;-77
2022/11/18 09:14:23;;;;;;;;;;;;;;;16.21;63.38;100227.28;5046589;28;19991;-77
2022/11/18 09:16:48;;;;;;;;;;;;;;;16.12;63.91;100228.91;5046809;28;20181;-77
2022/11/18 09:19:14;;;;;;;;;;;;;;;15.97;64.58;100226.25;5051305;28;19948;-77
2022/11/18 09:21:39;;;;;;;;;;;;;;;16.25;63.61;100230.25;5050960;28;19921;-77
2022/11/18 09:24:05;;;;;;;;;;;;;;;16.42;63.22;100231.50;5042989;28;19919;-75
2022/11/18 09:26:30;;;;;;;;;;;;;;;16.36;62.67;100231.81;5032353;28;20389;-76
2022/11/18 09:28:55;;;;;;;;;;;;;;;15.99;64.52;100237.63;5031009;28;19952;-78
2022/11/18 09:31:21;;;;;;;;;;;;;;;16.07;63.89;100238.97;5031165;28;19988;-78
2022/11/18 09:33:46;;;;;;;;;;;;;;;16.36;63.11;100235.34;5031106;28;19956;-77
2022/11/18 09:36:22;;;;;;;;;;;;;;;16.53;62.54;100243.97;5031028;28;19952;-77
2022/11/18 09:38:47;;;;;;;;;;;;;;;16.66;62.15;100239.84;5031467;28;19913;-77
2022/11/18 09:41:22;;;;;;;;;;;;;;;16.89;61.48;100241.88;5030842;28;19962;-76
2022/11/18 09:43:50;;;;;;;;;;;;;;;16.26;63.75;100242.69;5030708;28;19940;-77
2022/11/18 09:46:34;;;;;;;;;;;;;;;16.44;63.19;100250.22;5030788;28;19996;-77
2022/11/18 09:49:13;;;;;;;;;;;;;;;16.91;61.88;100249.72;5048738;28;20379;-77
2022/11/18 09:51:44;;;;;;;;;;;;;;;16.72;62.28;100255.00;5050982;28;19917;-77
2022/11/18 09:54:11;;;;;;;;;;;;;;;16.67;62.62;100261.25;5050986;28;19912;-78
2022/11/18 09:56:36;;;;;;;;;;;;;;;16.66;62.82;100262.38;5051602;28;20327;-78
2022/11/18 09:59:02;;;;;;;;;;;;;;;16.69;62.60;100267.22;5052785;28;19917;-77
2022/11/18 10:01:28;;;;;;;;;;;;;;;17.14;61.60;100268.06;5054809;28;20296;-77
2022/11/18 10:03:53;;;;;;;;;;;;;;;17.37;60.99;100264.63;5053305;28;19917;-77
2022/11/18 10:06:31;;;;;;;;;;;;;;;17.54;60.57;100265.84;5055083;28;19909;-78
2022/11/18 10:09:12;;;;;;;;;;;;;;;17.45;61.02;100266.72;5055106;28;19917;-77
2022/11/18 10:11:57;;;;;;;;;;;;;;;17.12;61.91;100270.25;5055179;28;19916;-76
2022/11/18 10:14:34;;;;;;;;;;;;;;;17.05;62.36;100283.28;4992742;28;20008;-76
2022/11/18 10:17:17;;;;;;;;;;;;;;;17.04;61.96;100277.03;4986087;28;19997;-77
2022/11/18 10:19:51;;;;;;;;;;;;;;;17.18;61.73;100282.66;4992559;28;19914;-76
2022/11/18 10:22:35;;;;;;;;;;;;;;;17.07;61.96;100284.66;4992682;28;19961;-77
2022/11/18 10:25:00;;;;;;;;;;;;;;;17.26;61.56;100292.91;4992559;28;19956;-76
2022/11/18 10:27:32;;;;;;;;;;;;;;;17.34;61.21;100295.03;4992805;28;19918;-77
2022/11/18 10:29:58;;;;;;;;;;;;;;;17.23;61.58;100296.22;4992637;28;19909;-78
2022/11/18 10:32:23;;;;;;;;;;;;;;;17.24;61.57;100303.25;4992484;28;19968;-77
2022/11/18 10:34:51;;;;;;;;;;;;;;;17.22;61.76;100294.59;4992365;28;19918;-76
2022/11/18 10:37:25;;;;;;;;;;;;;;;16.86;63.10;100304.03;4992234;28;19922;-78
2022/11/18 10:39:52;;;;;;;;;;;;;;;16.86;62.43;100298.63;4992461;28;19925;-78
2022/11/18 10:42:22;;;;;;;;;;;;;;;16.91;61.84;100301.28;4992241;28;19918;-77
2022/11/18 10:44:47;;;;;;;;;;;;;;;16.51;62.87;100307.72;4992540;28;20491;-77
2022/11/18 10:47:15;;;;;;;;;;;;;;;16.48;63.50;100302.81;4991981;28;19921;-78
2022/11/18 10:49:41;;;;;;;;;;;;;;;16.51;63.39;100307.72;4992007;28;19920;-78
2022/11/18 10:52:10;;;;;;;;;;;;;;;16.41;63.61;100299.59;5023301;28;19946;-79
2022/11/18 10:54:36;;;;;;;;;;;;;;;16.89;62.67;100309.72;5034048;28;20296;-77
2022/11/18 10:57:05;;;;;;;;;;;;;;;15.98;64.77;100308.38;5033930;28;19913;-75
2022/11/18 10:59:32;;;;;;;;;;;;;;;15.96;65.75;100308.63;5034198;28;19909;-76
2022/11/18 11:02:15;;;;;;;;;;;;;;;16.65;63.30;100306.84;5033851;28;19925;-77
2022/11/18 11:04:41;;;;;;;;;;;;;;;16.40;64.01;100301.50;5033897;28;19917;-77
2022/11/18 11:07:15;;;;;;;;;;;;;;;16.38;63.62;100308.28;5033628;28;19917;-77
2022/11/18 11:09:40;;;;;;;;;;;;;;;15.81;65.51;100309.47;5033166;28;19940;-74
2022/11/18 11:12:13;;;;;;;;;;;;;;;16.13;64.42;100313.75;5034340;28;19928;-79
2022/11/18 11:14:38;;;;;;;;;;;;;;;16.47;63.74;100320.97;5040811;28;20406;-74
2022/11/18 11:17:07;;;;;;;;;;;;;;;16.60;63.18;100331.28;5035437;28;20029;-74
2022/11/18 11:20:08;;;;;;;;;;;;;;;16.52;63.73;100325.63;5033478;28;19917;-74
2022/11/18 11:22:33;;;;;;;;;;;;;;;17.05;61.62;100329.44;4990975;28;19933;-73
2022/11/18 11:24:58;;;;;;;;;;;;;;;16.52;62.99;100322.91;5006048;28;19918;-74
2022/11/18 11:27:26;;;;;;;;;;;;;;;16.71;63.14;100334.75;5010970;28;20000;-74
2022/11/18 11:29:51;;;;;;;;;;;;;;;16.13;64.53;100330.84;5011019;28;19982;-76
2022/11/18 11:32:17;;;;;;;;;;;;;;;16.51;63.05;100332.16;5010574;28;20362;-76
2022/11/18 11:34:49;;;;;;;;;;;;;;;16.76;62.91;100332.03;5010501;28;19924;-74
2022/11/18 11:37:38;;;;;;;;;;;;;;;17.14;61.61;100336.72;5010232;28;19913;-73
2022/11/18 11:40:15;;;;;;;;;;;;;;;17.44;61.17;100338.44;4951972;29;19918;-73
2022/11/18 11:43:09;;;;;;;;;;;;;;;17.07;62.23;100335.41;4952262;29;19922;-75
2022/11/18 11:45:55;;;;;;;;;;;;;;;16.97;61.59;100343.59;4932356;29;19922;-74
2022/11/18 11:48:26;;;;;;;;;;;;;;;17.35;60.65;100340.97;4876302;29;19979;-75
2022/11/18 11:50:54;;;;;;;;;;;;;;;17.11;60.89;100344.63;4876664;29;19954;-75
2022/11/18 11:53:19;;;;;;;;;;;;;;;17.51;60.52;100347.91;4876087;29;19920;-75
2022/11/18 11:56:07;;;;;;;;;;;;;;;17.59;60.60;100348.44;4882323;29;19923;-74
2022/11/18 11:58:46;;;;;;;;;;;;;;;17.83;59.28;100343.88;4857556;29;19947;-73
2022/11/18 12:01:14;;;;;;;;;;;;;;;18.04;58.79;100351.56;4857452;29;20332;-74
2022/11/18 12:04:06;;;;;;;;;;;;;;;17.34;60.58;100352.06;4857330;29;20447;-76
2022/11/18 12:06:31;;;;;;;;;;;;;;;17.08;61.14;100351.41;4876008;29;20133;-74
2022/11/18 12:09:13;;;;;;;;;;;;;;;17.13;61.32;100351.41;4870287;29;20384;-74
2022/11/18 12:11:56;;;;;;;;;;;;;;;17.52;60.31;100359.59;4857493;29;20010;-75
2022/11/18 12:14:36;;;;;;;;;;;;;;;17.46;60.29;100356.09;4857457;29;19927;-74
2022/11/18 12:17:21;;;;;;;;;;;;;;;17.33;60.06;100358.63;4865565;29;19924;-73
2022/11/18 12:19:47;;;;;;;;;;;;;;;17.19;60.90;100358.44;4875667;29;19920;-74
2022/11/18 12:22:12;;;;;;;;;;;;;;;17.57;59.63;100359.59;4896818;29;20374;-73
2022/11/18 12:24:39;;;;;;;;;;;;;;;17.56;58.92;100368.81;4921577;28;19990;-74
2022/11/18 12:27:22;;;;;;;;;;;;;;;17.10;60.82;100362.81;4970856;28;20283;-72
2022/11/18 12:29:48;;;;;;;;;;;;;;;16.99;61.25;100372.09;4970864;28;20008;-72
2022/11/18 12:32:34;;;;;;;;;;;;;;;17.03;61.25;100375.06;4970418;28;19945;-72
2022/11/18 12:35:04;;;;;;;;;;;;;;;17.16;60.57;100366.34;4979610;28;19917;-73
2022/11/18 12:37:30;;;;;;;;;;;;;;;16.76;61.32;100370.03;5008051;28;19924;-73
2022/11/18 12:39:55;;;;;;;;;;;;;;;16.79;60.64;100369.47;5028479;28;19921;-76
2022/11/18 12:45:43;;;;;;;;;;;;;;;16.27;63.86;100371.75;5038960;28;19927;-75
2022/11/18 12:48:23;;;;;;;;;;;;;;;16.12;63.74;100374.47;5032025;28;20459;-73
2022/11/18 12:50:50;;;;;;;;;;;;;;;16.48;62.65;100370.63;5045881;28;19909;-74
2022/11/18 12:53:33;;;;;;;;;;;;;;;16.41;62.62;100380.97;5046116;28;19920;-74
2022/11/18 12:55:59;;;;;;;;;;;;;;;16.69;62.05;100385.78;5045752;28;19958;-74
2022/11/18 12:58:24;;;;;;;;;;;;;;;17.63;58.99;100388.31;5043857;28;20332;-74
2022/11/18 13:00:53;;;;;;;;;;;;;;;17.74;58.47;100381.72;5045378;28;20296;-74
2022/11/18 13:03:23;;;;;;;;;;;;;;;17.23;59.87;100380.41;5045729;28;19921;-74
2022/11/18 13:05:50;;;;;;;;;;;;;;;17.47;58.75;100395.72;5041685;28;19913;-74
2022/11/18 13:08:16;;;;;;;;;;;;;;;17.42;59.29;100392.22;5033190;28;20348;-73
2022/11/18 13:10:42;;;;;;;;;;;;;;;17.27;58.93;100403.19;5033341;28;19963;-74